createdAt,value
2022-10-17T05:11:14.691Z,0.857143
2022-10-17T05:12:14.726Z,0.857143
2022-10-17T05:13:14.772Z,0.857143
2022-10-17T05:14:14.784Z,1.71429
2022-10-17T05:15:14.815Z,1.71429
2022-10-17T05:16:14.852Z,2.5
2022-10-17T05:17:14.888Z,3.35714
2022-10-17T05:18:14.919Z,4.21429
2022-10-17T05:19:14.950Z,5.85714
2022-10-17T05:20:14.976Z,6.71429
2022-10-17T05:21:15.015Z,8.35714
2022-10-17T05:22:15.050Z,10
2022-10-17T05:23:15.085Z,11.7143
2022-10-17T05:24:15.103Z,13.3571
2022-10-17T05:25:15.139Z,15
2022-10-17T05:26:15.173Z,17.5
2022-10-17T05:27:15.202Z,20.8571
2022-10-17T05:28:15.236Z,24.2143
2022-10-17T05:29:15.266Z,28.3571
2022-10-17T05:30:15.301Z,33.3571
2022-10-17T05:31:15.333Z,36.7143
2022-10-17T05:32:15.369Z,39.2143
2022-10-17T05:33:15.421Z,40.8571
2022-10-17T05:34:15.432Z,42.5
2022-10-17T05:35:15.466Z,44.2143
2022-10-17T05:36:15.500Z,47.5
2022-10-17T05:37:15.528Z,53.3571
2022-10-17T05:38:15.592Z,56.7143
2022-10-17T05:39:15.595Z,61.7143
2022-10-17T05:40:15.633Z,67.5
2022-10-17T05:41:15.669Z,74.2143
2022-10-17T05:42:15.704Z,80.8571
2022-10-17T05:43:15.752Z,88.3571
2022-10-17T05:44:15.761Z,96.7143
2022-10-17T05:45:15.793Z,106.714
2022-10-17T05:46:15.827Z,115.857
2022-10-17T05:47:15.860Z,126.714
2022-10-17T05:48:15.909Z,137.5
2022-10-17T05:49:31.989Z,150
2022-10-17T05:50:15.953Z,161.714
2022-10-17T05:51:15.993Z,174.214
2022-10-17T05:52:16.025Z,186.714
2022-10-17T05:53:16.071Z,198.357
2022-10-17T05:54:16.090Z,209.214
2022-10-17T05:55:16.122Z,217.5
2022-10-17T05:56:16.158Z,225.857
2022-10-17T05:57:16.210Z,236.714
2022-10-17T05:58:22.246Z,248.357
2022-10-17T05:59:16.252Z,260.857
2022-10-17T06:00:16.288Z,275
2022-10-17T06:01:16.316Z,290.857
2022-10-17T06:02:16.513Z,309.214
2022-10-17T06:03:16.399Z,327.5
2022-10-17T06:04:16.405Z,342.5
2022-10-17T06:05:16.459Z,353.357
2022-10-17T06:06:16.588Z,365
2022-10-17T06:07:16.495Z,378.357
2022-10-17T06:08:16.542Z,386.714
2022-10-17T06:09:16.555Z,390.857
2022-10-17T06:10:16.728Z,394.214
2022-10-17T06:11:16.623Z,408.357
2022-10-17T06:12:16.657Z,420
2022-10-17T06:13:16.690Z,423.357
2022-10-17T06:14:16.728Z,419.214
2022-10-17T06:15:16.776Z,417.5
2022-10-17T06:16:16.789Z,426.714
2022-10-17T06:17:16.819Z,438.357
2022-10-17T06:18:16.846Z,455
2022-10-17T06:19:16.876Z,472.5
2022-10-17T06:20:16.927Z,499.214
2022-10-17T06:21:16.933Z,509.214
2022-10-17T06:22:16.970Z,510.857
2022-10-17T06:23:16.998Z,508.357
2022-10-17T06:24:17.040Z,493.357
2022-10-17T06:25:17.055Z,490
2022-10-17T06:26:17.108Z,500.857
2022-10-17T06:27:17.117Z,517.5
2022-10-17T06:28:17.148Z,546.714
2022-10-17T06:29:17.207Z,580.857
2022-10-17T06:30:17.220Z,606.714
2022-10-17T06:31:17.255Z,631.714
2022-10-17T06:32:17.287Z,646.714
2022-10-17T06:33:17.334Z,651.714
2022-10-17T06:34:17.347Z,666.714
2022-10-17T06:35:17.371Z,693.357
2022-10-17T06:36:17.403Z,726.714
2022-10-17T06:37:17.439Z,748.357
2022-10-17T06:38:17.495Z,733.357
2022-10-17T06:39:17.499Z,700
2022-10-17T06:40:17.530Z,675
2022-10-17T06:41:17.567Z,656.714
2022-10-17T06:42:17.615Z,635
2022-10-17T06:43:17.626Z,606.714
2022-10-17T06:44:17.657Z,582.5
2022-10-17T06:45:17.685Z,574.214
2022-10-17T06:46:17.741Z,588.357
2022-10-17T06:47:19.974Z,616.714
2022-10-17T06:48:17.769Z,660
2022-10-17T06:49:17.820Z,705.857
2022-10-17T06:50:17.827Z,739.214
2022-10-17T06:51:17.914Z,773.357
2022-10-17T06:52:17.910Z,810
2022-10-17T06:53:17.922Z,843.357
2022-10-17T06:54:17.950Z,900.857
2022-10-17T06:55:21.423Z,955
2022-10-17T06:56:18.016Z,1000
2022-10-17T06:57:18.067Z,1018.36
2022-10-17T06:58:18.070Z,1035
2022-10-17T06:59:18.116Z,1033.36
2022-10-17T07:00:18.155Z,1043.36
2022-10-17T07:01:18.166Z,1016.71
2022-10-17T07:02:18.200Z,971.714
2022-10-17T07:03:18.229Z,945
2022-10-17T07:04:18.289Z,919.214
2022-10-17T07:05:18.306Z,899.214
2022-10-17T07:06:18.330Z,892.5
2022-10-17T07:07:18.359Z,900
2022-10-17T07:08:18.399Z,889.214
2022-10-17T07:09:18.445Z,868.357
2022-10-17T07:10:18.463Z,848.357
2022-10-17T07:11:18.507Z,830.857
2022-10-17T07:12:18.514Z,800.857
2022-10-17T07:13:18.549Z,810
2022-10-17T07:14:18.576Z,831.714
2022-10-17T07:15:18.607Z,874.214
2022-10-17T07:16:18.662Z,915
2022-10-17T07:17:18.678Z,910.857
2022-10-17T07:18:18.709Z,892.5
2022-10-17T07:19:18.747Z,882.5
2022-10-17T07:20:18.799Z,870
2022-10-17T07:21:18.813Z,870.857
2022-10-17T07:22:18.846Z,879.214
2022-10-17T07:23:18.888Z,887.5
2022-10-17T07:24:18.921Z,895
2022-10-17T07:25:18.977Z,904.214
2022-10-17T07:26:18.996Z,920
2022-10-17T07:27:19.033Z,930.857
2022-10-17T07:28:19.065Z,939.214
2022-10-17T07:29:19.112Z,915.857
2022-10-17T07:30:19.141Z,894.214
2022-10-17T07:31:19.160Z,850
2022-10-17T07:32:19.192Z,826.714
2022-10-17T07:33:19.216Z,833.357
2022-10-17T07:34:19.272Z,850.857
2022-10-17T07:35:19.291Z,866.714
2022-10-17T07:36:19.313Z,877.5
2022-10-17T07:37:19.360Z,873.357
2022-10-17T07:38:19.396Z,864.214
2022-10-17T07:39:19.447Z,850.857
2022-10-17T07:40:19.455Z,822.5
2022-10-17T07:41:21.720Z,793.357
2022-10-17T07:42:19.519Z,780
2022-10-17T07:43:19.578Z,785
2022-10-17T07:44:19.586Z,781.714
2022-10-17T07:45:19.615Z,769.214
2022-10-17T07:46:19.661Z,772.5
2022-10-17T07:47:19.679Z,772.5
2022-10-17T07:48:19.730Z,784.214
2022-10-17T07:49:19.743Z,816.714
2022-10-17T07:50:19.795Z,855
2022-10-17T07:51:19.797Z,888.357
2022-10-17T07:52:19.836Z,875.857
2022-10-17T07:53:19.860Z,850.857
2022-10-17T07:54:19.887Z,804.214
2022-10-17T07:55:19.947Z,781.714
2022-10-17T07:56:19.959Z,766.714
2022-10-17T07:57:19.989Z,763.357
2022-10-17T07:58:20.020Z,788.357
2022-10-17T07:59:20.075Z,795
2022-10-17T08:00:20.084Z,812.5
2022-10-17T08:01:20.138Z,810
2022-10-17T08:02:20.152Z,810.857
2022-10-17T08:03:20.182Z,820
2022-10-17T08:04:20.227Z,829.214
2022-10-17T08:05:20.240Z,850.857
2022-10-17T08:06:20.289Z,863.357
2022-10-17T08:07:23.228Z,870
2022-10-17T08:08:20.326Z,873.357
2022-10-17T08:09:20.374Z,882.5
2022-10-17T08:10:20.403Z,885.857
2022-10-17T08:11:20.457Z,883.357
2022-10-17T08:12:20.468Z,940
2022-10-17T08:13:20.503Z,1014.21
2022-10-17T08:14:20.551Z,1171.71
2022-10-17T08:15:20.555Z,1237.5
2022-10-17T08:16:20.585Z,1168.36
2022-10-17T08:17:20.623Z,1130
2022-10-17T08:18:20.648Z,1121.71
2022-10-17T08:19:20.704Z,1079.21
2022-10-17T08:20:20.719Z,1110.86
2022-10-17T08:21:20.749Z,1124.21
2022-10-17T08:22:20.782Z,1083.36
2022-10-17T08:23:20.809Z,1000
2022-10-17T08:24:20.868Z,906.714
2022-10-17T08:25:20.882Z,878.357
2022-10-17T08:26:20.915Z,1048.36
2022-10-17T08:27:20.944Z,1161.71
2022-10-17T08:28:20.981Z,894.214
2022-10-17T08:29:21.009Z,878.357
2022-10-17T08:30:21.045Z,870
2022-10-17T08:31:21.076Z,864.214
2022-10-17T08:32:21.112Z,842.5
2022-10-17T08:33:21.145Z,824.214
2022-10-17T08:34:21.175Z,802.5
2022-10-17T08:35:21.237Z,789.214
2022-10-17T08:36:21.248Z,775
2022-10-17T08:37:21.276Z,760
2022-10-17T08:38:22.571Z,758.357
2022-10-17T08:39:21.348Z,750
2022-10-17T08:40:21.368Z,740
2022-10-17T08:41:21.395Z,707.5
2022-10-17T08:42:21.429Z,699.214
2022-10-17T08:43:21.459Z,751.714
2022-10-17T08:44:21.497Z,761.714
2022-10-17T08:45:21.526Z,765.857
2022-10-17T08:46:21.581Z,774.214
2022-10-17T08:47:21.596Z,770.857
2022-10-17T08:48:21.626Z,792.5
2022-10-17T08:49:21.655Z,788.357
2022-10-17T08:50:21.716Z,787.5
2022-10-17T08:51:21.716Z,791.714
2022-10-17T08:52:21.744Z,789.214
2022-10-17T08:53:21.771Z,792.5
2022-10-17T08:54:21.805Z,791.714
2022-10-17T08:55:21.866Z,794.214
2022-10-17T08:56:25.028Z,784.214
2022-10-17T08:57:21.909Z,785.857
2022-10-17T08:58:21.945Z,786.714
2022-10-17T08:59:21.965Z,790
2022-10-17T09:00:22.025Z,800
2022-10-17T09:01:22.026Z,815
2022-10-17T09:02:22.060Z,825
2022-10-17T09:03:22.164Z,830.857
2022-10-17T09:04:22.241Z,837.5
2022-10-17T09:05:25.514Z,840
2022-10-17T09:06:22.182Z,843.357
2022-10-17T09:07:22.216Z,840.857
2022-10-17T09:08:22.253Z,840
2022-10-17T09:09:22.284Z,839.214
2022-10-17T09:10:22.333Z,833.357
2022-10-17T09:11:22.338Z,826.714
2022-10-17T09:12:22.393Z,825
2022-10-17T09:13:22.405Z,825.857
2022-10-17T09:14:22.435Z,826.714
2022-10-17T09:15:22.462Z,825.857
2022-10-17T09:16:22.493Z,836.714
2022-10-17T09:17:22.640Z,835
2022-10-17T09:18:22.556Z,827.5
2022-10-17T09:19:22.601Z,822.5
2022-10-17T09:20:22.628Z,820
2022-10-17T09:21:22.658Z,812.5
2022-10-17T09:22:22.715Z,803.357
2022-10-17T09:23:22.723Z,796.714
2022-10-17T09:24:22.754Z,794.214
2022-10-17T09:25:22.802Z,780.857
2022-10-17T09:26:22.819Z,774.214
2022-10-17T09:27:22.870Z,772.5
2022-10-17T09:28:22.975Z,767.5
2022-10-17T09:29:22.922Z,761.714
2022-10-17T09:30:43.596Z,764.214
2022-10-17T09:31:22.988Z,764.214
2022-10-17T09:32:23.023Z,763.357
2022-10-17T09:33:34.781Z,756.714
2022-10-17T09:34:26.697Z,759.214
2022-10-17T09:35:23.134Z,759.214
2022-10-17T09:36:23.148Z,757.5
2022-10-17T09:37:23.229Z,765.857
2022-10-17T09:38:23.228Z,763.357
2022-10-17T09:39:23.252Z,765.857
2022-10-17T09:40:23.291Z,772.5
2022-10-17T09:41:44.246Z,770
2022-10-17T09:42:23.353Z,770.857
2022-10-17T09:43:23.403Z,776.714
2022-10-17T09:44:23.419Z,786.714
2022-10-17T09:45:23.451Z,801.714
2022-10-17T09:46:23.502Z,812.5
2022-10-17T09:47:23.559Z,825.857
2022-10-17T09:48:23.542Z,841.714
2022-10-17T09:49:23.573Z,855
2022-10-17T09:50:23.617Z,863.357
2022-10-17T09:51:25.938Z,878.357
2022-10-17T09:52:23.666Z,882.5
2022-10-17T09:53:23.704Z,890
2022-10-17T09:54:23.744Z,887.5
2022-10-17T09:55:23.752Z,885.857
2022-10-17T09:56:23.785Z,880
2022-10-17T09:57:23.933Z,878.357
2022-10-17T09:58:23.855Z,879.214
2022-10-17T09:59:24.007Z,921.714
2022-10-17T10:00:23.981Z,978.357
2022-10-17T10:01:24.510Z,1022.5
2022-10-17T10:02:23.983Z,1089.21
2022-10-17T10:03:24.018Z,1188.36
2022-10-17T10:04:24.071Z,1228.36
2022-10-17T10:05:24.081Z,1235.86
2022-10-17T10:06:24.111Z,1275
2022-10-17T10:07:28.959Z,1370
2022-10-17T10:08:24.175Z,1522.5
2022-10-17T10:09:24.227Z,1675.86
2022-10-17T10:10:24.226Z,1672.5
2022-10-17T10:11:24.275Z,1725
2022-10-17T10:12:24.289Z,1820
2022-10-17T10:13:24.311Z,1838.36
2022-10-17T10:14:24.365Z,1848.36
2022-10-17T10:15:24.367Z,1960.86
2022-10-17T10:16:24.401Z,2116.71
2022-10-17T10:17:24.463Z,2177.5
2022-10-17T10:18:24.514Z,2165.86
2022-10-17T10:19:24.493Z,2081.71
2022-10-17T10:20:24.518Z,1952.5
2022-10-17T10:21:24.556Z,1790.86
2022-10-17T10:22:24.608Z,1653.36
2022-10-17T10:23:24.625Z,1560
2022-10-17T10:24:29.632Z,1446.71
2022-10-17T10:25:24.684Z,1356.71
2022-10-17T10:26:24.714Z,1302.5
2022-10-17T10:27:24.808Z,1227.5
2022-10-17T10:28:24.806Z,1141.71
2022-10-17T10:29:24.811Z,1070
2022-10-17T10:30:24.840Z,1039.21
2022-10-17T10:31:24.869Z,1020
2022-10-17T10:32:24.924Z,1005
2022-10-17T10:33:24.933Z,999.214
2022-10-17T10:34:24.966Z,1006.71
2022-10-17T10:35:24.999Z,1055.86
2022-10-17T10:36:25.086Z,1201.71
2022-10-17T10:37:25.091Z,1221.71
2022-10-17T10:38:25.111Z,1185
2022-10-17T10:39:25.148Z,1207.5
2022-10-17T10:40:25.169Z,1280
2022-10-17T10:41:25.191Z,1282.5
2022-10-17T10:42:25.221Z,1250.86
2022-10-17T10:43:25.247Z,1218.36
2022-10-17T10:44:25.275Z,1185.86
2022-10-17T10:45:43.226Z,1120
2022-10-17T10:46:25.341Z,1072.5
2022-10-17T10:47:25.372Z,1020
2022-10-17T10:48:25.411Z,965
2022-10-17T10:49:25.433Z,1002.5
2022-10-17T10:50:25.490Z,929.214
2022-10-17T10:51:25.492Z,810.857
2022-10-17T10:52:25.519Z,785
2022-10-17T10:53:25.549Z,802.5
2022-10-17T10:54:25.655Z,814.214
2022-10-17T10:55:25.634Z,796.714
2022-10-17T10:56:25.642Z,774.214
2022-10-17T10:57:25.725Z,805.857
2022-10-17T10:58:25.705Z,826.714
2022-10-17T10:59:25.730Z,834.214
2022-10-17T11:00:25.825Z,855.857
2022-10-17T11:01:25.811Z,863.357
2022-10-17T11:02:25.843Z,903.357
2022-10-17T11:03:25.863Z,933.357
2022-10-17T11:04:25.898Z,951.714
2022-10-17T11:05:25.933Z,949.214
2022-10-17T11:06:25.960Z,953.357
2022-10-17T11:07:25.998Z,963.357
2022-10-17T11:08:26.023Z,974.214
2022-10-17T11:09:28.818Z,979.214
2022-10-17T11:10:26.100Z,975
2022-10-17T11:11:26.132Z,957.5
2022-10-17T11:12:26.164Z,939.214
2022-10-17T11:13:26.190Z,922.5
2022-10-17T11:14:26.244Z,899.214
2022-10-17T11:15:26.247Z,873.357
2022-10-17T11:16:26.293Z,850
2022-10-17T11:17:26.328Z,828.357
2022-10-17T11:18:26.355Z,805
2022-10-17T11:19:26.410Z,790
2022-10-17T11:20:26.425Z,783.357
2022-10-17T11:21:26.456Z,782.5
2022-10-17T11:22:29.041Z,780.857
2022-10-17T11:23:26.531Z,785.857
2022-10-17T11:24:26.565Z,795
2022-10-17T11:25:26.604Z,820.857
2022-10-17T11:26:26.640Z,837.5
2022-10-17T11:27:26.669Z,847.5
2022-10-17T11:28:26.816Z,853.357
2022-10-17T11:29:26.739Z,865.857
2022-10-17T11:30:26.772Z,882.5
2022-10-17T11:31:26.807Z,910
2022-10-17T11:32:26.983Z,937.5
2022-10-17T11:33:26.890Z,965
2022-10-17T11:34:26.973Z,990
2022-10-17T11:35:26.928Z,1008.36
2022-10-17T11:36:27.025Z,1023.36
2022-10-17T11:37:26.985Z,1035
2022-10-17T11:38:27.056Z,1040
2022-10-17T11:39:27.042Z,1042.5
2022-10-17T11:40:27.078Z,1041.71
2022-10-17T11:41:27.108Z,1048.36
2022-10-17T11:42:27.545Z,1057.5
2022-10-17T11:43:27.193Z,1071.71
2022-10-17T11:44:27.202Z,1100
2022-10-17T11:45:27.231Z,1125.86
2022-10-17T11:46:27.314Z,1135
2022-10-17T11:47:27.287Z,1130
2022-10-17T11:48:27.336Z,1123.36
2022-10-17T11:52:51.337Z,1174.21
2022-10-17T11:53:27.479Z,1185.86
2022-10-17T11:54:27.514Z,1178.36
2022-10-17T11:55:27.544Z,1158.36
2022-10-17T11:56:27.584Z,1138.36
2022-10-17T11:57:27.631Z,1150
2022-10-17T11:59:27.674Z,1226.71
2022-10-17T12:00:27.733Z,1292.5
2022-10-17T12:01:27.739Z,1345
2022-10-17T12:02:28.234Z,1341.71
2022-10-17T12:03:27.805Z,1384.21
2022-10-17T12:04:27.903Z,1413.36
2022-10-17T12:05:27.888Z,1433.36
2022-10-17T12:06:29.491Z,1425
2022-10-17T12:07:28.525Z,1363.36
2022-10-17T12:08:30.523Z,1281.71
2022-10-17T12:09:28.013Z,1177.5
2022-10-17T12:10:28.030Z,1075.86
2022-10-17T12:11:28.065Z,984.214
2022-10-17T12:12:28.533Z,903.357
2022-10-17T12:13:28.142Z,845
2022-10-17T12:14:28.153Z,796.714
2022-10-17T12:15:28.180Z,766.714
2022-10-17T12:16:28.300Z,747.5
2022-10-17T12:17:28.585Z,730
2022-10-17T12:18:28.268Z,716.714
2022-10-17T12:19:28.300Z,710
2022-10-17T12:20:28.332Z,701.714
2022-10-17T12:21:31.298Z,695.857
2022-10-17T12:22:28.387Z,687.5
2022-10-17T12:23:28.421Z,675.857
2022-10-17T12:24:28.673Z,666.714
2022-10-17T12:25:28.548Z,659.214
2022-10-17T12:26:28.544Z,654.214
2022-10-17T12:27:28.824Z,653.357
2022-10-17T12:28:28.614Z,655
2022-10-17T12:29:28.613Z,658.357
2022-10-17T12:30:28.673Z,659.214
2022-10-17T12:31:33.622Z,655.857
2022-10-17T12:32:36.836Z,658.357
2022-10-17T12:33:28.746Z,658.357
2022-10-17T12:34:28.784Z,655.857
2022-10-17T12:35:28.832Z,646.714
2022-10-17T12:36:28.849Z,636.714
2022-10-17T12:37:29.365Z,628.357
2022-10-17T12:38:28.914Z,624.214
2022-10-17T12:39:28.947Z,621.714
2022-10-17T12:40:29.000Z,620.857
2022-10-17T12:41:29.020Z,620.857
2022-10-17T12:42:29.326Z,628.357
2022-10-17T12:43:29.199Z,657.5
2022-10-17T12:44:31.007Z,740.857
2022-10-17T12:45:29.156Z,842.5
2022-10-17T12:46:29.221Z,875.857
2022-10-17T12:47:29.622Z,845
2022-10-17T12:48:29.254Z,792.5
2022-10-17T12:49:29.292Z,762.5
2022-10-17T12:50:29.319Z,747.5
2022-10-17T12:51:37.465Z,747.5
2022-10-17T12:52:29.389Z,750
2022-10-17T12:53:30.405Z,743.357
2022-10-17T12:54:31.435Z,728.357
2022-10-17T12:55:29.496Z,723.357
2022-10-17T12:56:29.544Z,720.857
2022-10-17T12:57:29.830Z,719.214
2022-10-17T12:58:29.592Z,726.714
2022-10-17T12:59:29.628Z,725.857
2022-10-17T13:00:29.718Z,725.857
2022-10-17T13:01:29.721Z,722.5
2022-10-17T13:02:29.722Z,715.857
2022-10-17T13:03:29.747Z,720.857
2022-10-17T13:04:29.782Z,730
2022-10-17T13:05:29.837Z,748.357
2022-10-17T13:06:29.845Z,767.5
2022-10-17T13:07:30.125Z,791.714
2022-10-17T13:08:29.909Z,828.357
2022-10-17T13:09:29.955Z,867.5
2022-10-17T13:10:30.005Z,889.214
2022-10-17T13:11:30.010Z,853.357
2022-10-17T13:12:30.315Z,856.714
2022-10-17T13:13:30.066Z,884.214
2022-10-17T13:14:30.099Z,904.214
2022-10-17T13:15:30.130Z,910.857
2022-10-17T13:16:30.165Z,920
2022-10-17T13:17:30.198Z,940.857
2022-10-17T13:18:30.227Z,961.714
2022-10-17T13:19:30.296Z,1016.71
2022-10-17T13:20:31.650Z,1053.36
2022-10-17T13:21:30.316Z,1075
2022-10-17T13:22:30.736Z,1123.36
2022-10-17T13:23:30.360Z,1170.86
2022-10-17T13:24:30.384Z,1285
2022-10-17T13:25:30.411Z,1470.86
2022-10-17T13:26:30.435Z,1682.5
2022-10-17T13:27:30.489Z,1537.5
2022-10-17T13:28:30.534Z,1295.86
2022-10-17T13:29:30.526Z,1154.21
2022-10-17T13:30:32.177Z,1092.5
2022-10-17T13:31:30.593Z,1092.5
2022-10-17T13:32:30.928Z,1097.5
2022-10-17T13:33:30.659Z,1183.36
2022-10-17T13:34:30.688Z,1128.36
2022-10-17T13:35:55.408Z,1085
2022-10-17T13:36:30.747Z,1282.5
2022-10-17T13:37:30.781Z,1290
2022-10-17T13:38:30.811Z,1145.86
2022-10-17T13:39:45.254Z,992.5
2022-10-17T13:40:44.571Z,887.5
2022-10-17T13:41:35.922Z,826.714
2022-10-17T13:42:31.315Z,742.5
2022-10-17T13:43:30.954Z,700
2022-10-17T13:44:31.005Z,677.5
2022-10-17T13:45:31.017Z,665.857
2022-10-17T13:46:37.967Z,656.714
2022-10-17T13:47:31.082Z,670.857
2022-10-17T13:48:31.133Z,684.214
2022-10-17T13:49:31.146Z,694.214
2022-10-17T13:50:43.680Z,702.5
2022-10-17T13:51:31.210Z,706.714
2022-10-17T13:52:31.739Z,708.357
2022-10-17T13:53:31.275Z,721.714
2022-10-17T13:54:31.308Z,753.357
2022-10-17T13:55:31.337Z,778.357
2022-10-17T13:56:31.451Z,795.857
2022-10-17T13:57:31.834Z,795.857
2022-10-17T13:58:31.434Z,768.357
2022-10-17T13:59:31.464Z,731.714
2022-10-17T14:00:31.551Z,701.714
2022-10-17T14:01:31.529Z,689.214
2022-10-17T14:02:31.565Z,689.214
2022-10-17T14:03:47.062Z,711.714
2022-10-17T14:04:44.736Z,730.857
2022-10-17T14:05:31.650Z,746.714
2022-10-17T14:06:31.688Z,740
2022-10-17T14:07:46.386Z,720
2022-10-17T14:08:31.764Z,693.357
2022-10-17T14:09:31.794Z,671.714
2022-10-17T14:10:31.809Z,655
2022-10-17T14:11:31.840Z,640
2022-10-17T14:12:31.873Z,625.857
2022-10-17T14:13:31.951Z,611.714
2022-10-17T14:14:46.227Z,594.214
2022-10-17T14:15:31.969Z,581.714
2022-10-17T14:16:32.005Z,580
2022-10-17T14:17:32.594Z,577.5
2022-10-17T14:18:36.138Z,588.357
2022-10-17T14:19:32.120Z,608.357
2022-10-17T14:21:43.434Z,637.5
2022-10-17T14:22:32.227Z,650.857
2022-10-17T14:23:32.277Z,665.857
2022-10-17T14:24:32.287Z,671.714
2022-10-17T14:25:32.321Z,669.214
2022-10-17T14:26:32.360Z,658.357
2022-10-17T14:27:32.813Z,648.357
2022-10-17T14:28:32.506Z,634.214
2022-10-17T14:29:32.448Z,617.5
2022-10-17T14:30:54.959Z,604.214
2022-10-17T14:31:32.516Z,590.857
2022-10-17T14:33:32.606Z,555
2022-10-17T14:34:32.623Z,531.714
2022-10-17T14:35:41.900Z,515
2022-10-17T14:36:32.674Z,504.214
2022-10-17T14:37:32.729Z,490.857
2022-10-17T14:38:32.740Z,468.357
2022-10-17T14:39:32.779Z,445
2022-10-17T14:40:32.827Z,422.5
2022-10-17T14:41:43.184Z,402.5
2022-10-17T14:42:32.868Z,383.357
2022-10-17T14:43:32.898Z,367.5
2022-10-17T14:44:32.931Z,355
2022-10-17T14:45:32.965Z,347.5
2022-10-17T14:46:33.015Z,335.857
2022-10-17T14:47:43.115Z,325.857
2022-10-17T14:48:33.085Z,320
2022-10-17T14:49:33.098Z,317.5
2022-10-17T14:50:33.154Z,317.5
2022-10-17T14:51:40.206Z,320
2022-10-17T14:52:33.398Z,330.857
2022-10-17T14:53:33.200Z,345.857
2022-10-17T14:54:33.231Z,361.714
2022-10-17T14:55:33.263Z,375.857
2022-10-17T14:56:33.297Z,387.5
2022-10-17T14:57:33.328Z,395
2022-10-17T14:58:33.383Z,403.357
2022-10-17T14:59:53.286Z,429.214
2022-10-17T15:00:33.445Z,448.357
2022-10-17T15:01:33.453Z,474.214
2022-10-17T15:02:33.609Z,515
2022-10-17T15:03:33.582Z,530
2022-10-17T15:04:33.552Z,511.714
2022-10-17T15:05:33.606Z,480
2022-10-17T15:06:33.622Z,454.214
2022-10-17T15:07:33.660Z,416.714
2022-10-17T15:08:33.755Z,379.214
2022-10-17T15:09:33.718Z,355.857
2022-10-17T15:10:33.791Z,349.214
2022-10-17T15:11:33.780Z,352.5
2022-10-17T15:12:33.810Z,356.714
2022-10-17T15:13:41.082Z,360
2022-10-17T15:14:33.872Z,357.5
2022-10-17T15:15:33.925Z,351.714
2022-10-17T15:16:33.954Z,347.5
2022-10-17T15:17:34.035Z,340.857
2022-10-17T15:18:34.006Z,330
2022-10-17T15:19:34.025Z,329.214
2022-10-17T15:20:34.054Z,330
2022-10-17T15:21:40.566Z,328.357
2022-10-17T15:22:34.117Z,363.357
2022-10-17T15:23:34.166Z,409.214
2022-10-17T15:24:34.174Z,453.357
2022-10-17T15:25:34.200Z,471.714
2022-10-17T15:26:34.252Z,428.357
2022-10-17T15:27:34.267Z,371.714
2022-10-17T15:28:34.413Z,316.714
2022-10-17T15:29:34.330Z,278.357
2022-10-17T15:30:34.366Z,250
2022-10-17T15:31:34.422Z,230
2022-10-17T15:32:34.433Z,217.5
2022-10-17T15:33:34.462Z,210
2022-10-17T15:34:34.505Z,205
2022-10-17T15:35:34.550Z,205
2022-10-17T15:36:34.585Z,209.214
2022-10-17T15:37:34.596Z,214.214
2022-10-17T15:38:34.649Z,232.5
2022-10-17T15:39:34.654Z,261.714
2022-10-17T15:40:34.687Z,266.714
2022-10-17T15:41:34.717Z,255.857
2022-10-17T15:42:34.753Z,238.357
2022-10-17T15:43:34.792Z,221.714
2022-10-17T15:44:34.836Z,209.214
2022-10-17T15:45:34.845Z,197.5
2022-10-17T15:46:34.878Z,181.714
2022-10-17T15:47:34.940Z,170.857
2022-10-17T15:48:34.933Z,160
2022-10-17T15:49:35.004Z,150
2022-10-17T15:50:35.011Z,144.214
2022-10-17T15:51:35.038Z,137.5
2022-10-17T15:52:35.062Z,130.857
2022-10-17T15:53:35.095Z,130.857
2022-10-17T15:54:35.132Z,130.857
2022-10-17T15:55:35.154Z,124.214
2022-10-17T15:56:35.185Z,116.714
2022-10-17T15:57:35.216Z,113.357
2022-10-17T15:58:35.267Z,104.214
2022-10-17T15:59:35.277Z,90
2022-10-17T16:00:35.368Z,74.2143
2022-10-17T16:01:35.359Z,63.3571
2022-10-17T16:02:35.372Z,56.7143
2022-10-17T16:03:35.402Z,51.7143
2022-10-17T16:04:35.445Z,47.5
2022-10-17T16:05:35.490Z,43.3571
2022-10-17T16:06:35.526Z,40
2022-10-17T16:07:35.547Z,36.7143
2022-10-17T16:08:35.579Z,33.3571
2022-10-17T16:09:35.626Z,30.8571
2022-10-17T16:10:35.641Z,27.5
2022-10-17T16:11:35.694Z,25
2022-10-17T16:12:35.709Z,22.5
2022-10-17T16:13:35.738Z,20.8571
2022-10-17T16:14:35.766Z,18.3571
2022-10-17T16:15:35.823Z,16.7143
2022-10-17T16:16:35.834Z,14.2143
2022-10-17T16:17:35.862Z,12.5
2022-10-17T16:18:35.897Z,10.8571
2022-10-17T16:19:35.928Z,9.21429
2022-10-17T16:20:35.978Z,8.35714
2022-10-17T16:21:35.997Z,6.71429
2022-10-17T16:22:36.020Z,5.85714
2022-10-17T16:23:36.052Z,5
2022-10-17T16:24:36.091Z,4.21429
2022-10-17T16:25:36.122Z,3.35714
2022-10-17T16:26:36.181Z,2.5
2022-10-17T16:27:36.189Z,2.5
2022-10-17T16:28:36.265Z,1.71429
2022-10-17T16:29:36.248Z,1.71429
2022-10-17T16:30:36.276Z,0.857143
2022-10-17T16:31:36.338Z,0.857143
2022-10-17T16:32:38.347Z,0.857143
